createdAt,value
2022-10-26T00:00:01.688Z,7.70
2022-10-26T00:01:24.084Z,8.30
2022-10-26T00:02:46.433Z,7.77
2022-10-26T00:04:08.666Z,8.60
2022-10-26T00:05:33.643Z,8.27
2022-10-26T00:06:55.646Z,8.37
2022-10-26T00:08:17.666Z,8.67
2022-10-26T00:09:39.672Z,10.50
2022-10-26T00:11:01.855Z,9.40
2022-10-26T00:12:24.783Z,8.50
2022-10-26T00:13:47.891Z,8.17
2022-10-26T00:15:10.431Z,8.10
2022-10-26T00:16:32.444Z,8.50
2022-10-26T00:17:54.510Z,9.27
2022-10-26T00:19:16.518Z,8.73
2022-10-26T00:20:38.590Z,8.30
2022-10-26T00:22:00.851Z,9.13
2022-10-26T00:23:22.843Z,9.53
2022-10-26T00:24:45.373Z,8.40
2022-10-26T00:26:07.948Z,8.47
2022-10-26T00:27:29.934Z,8.97
2022-10-26T00:28:55.387Z,7.97
2022-10-26T00:30:17.474Z,8.67
2022-10-26T00:31:39.766Z,8.50
2022-10-26T00:33:01.776Z,8.77
2022-10-26T00:34:23.753Z,8.53
2022-10-26T00:35:53.118Z,8.50
2022-10-26T00:37:15.121Z,9.03
2022-10-26T00:38:37.928Z,9.30
2022-10-26T00:39:59.928Z,8.50
2022-10-26T00:41:27.466Z,8.43
2022-10-26T00:42:49.883Z,10.13
2022-10-26T00:44:45.853Z,8.77
2022-10-26T00:46:20.037Z,8.60
2022-10-26T00:47:50.859Z,9.23
2022-10-26T00:49:16.816Z,7.87
2022-10-26T00:50:42.886Z,7.97
2022-10-26T00:52:06.528Z,9.33
2022-10-26T00:53:29.763Z,8.80
2022-10-26T00:54:54.134Z,8.80
2022-10-26T00:56:16.605Z,7.83
2022-10-26T00:57:39.678Z,8.77
2022-10-26T00:59:05.594Z,8.97
2022-10-26T01:00:27.729Z,9.73
2022-10-26T01:01:51.566Z,8.80
2022-10-26T01:03:14.433Z,9.20
2022-10-26T01:04:36.809Z,9.40
2022-10-26T01:05:59.215Z,9.00
2022-10-26T01:08:44.503Z,8.27
2022-10-26T01:10:07.460Z,9.07
2022-10-26T01:11:29.710Z,9.33
2022-10-26T01:12:52.926Z,8.60
2022-10-26T01:14:19.034Z,8.93
2022-10-26T01:16:03.895Z,9.23
2022-10-26T01:17:35.274Z,8.97
2022-10-26T01:19:09.872Z,9.07
2022-10-26T01:20:51.229Z,8.70
2022-10-26T01:22:19.831Z,9.07
2022-10-26T01:24:06.173Z,10.83
2022-10-26T01:25:46.247Z,10.10
2022-10-26T01:27:28.380Z,8.87
2022-10-26T01:28:50.463Z,8.17
2022-10-26T01:30:34.572Z,9.90
2022-10-26T01:32:08.753Z,9.30
2022-10-26T01:33:49.707Z,9.07
2022-10-26T01:35:26.456Z,8.27
2022-10-26T01:37:04.798Z,8.70
2022-10-26T01:38:55.006Z,9.77
2022-10-26T01:40:27.359Z,9.43
2022-10-26T01:41:52.493Z,9.77
2022-10-26T01:43:17.132Z,9.23
2022-10-26T01:44:59.529Z,8.77
2022-10-26T01:46:24.618Z,8.93
2022-10-26T01:47:48.663Z,9.20
2022-10-26T01:49:14.500Z,9.47
2022-10-26T01:50:37.631Z,10.00
2022-10-26T01:51:59.773Z,9.13
2022-10-26T01:53:25.018Z,9.57
2022-10-26T01:54:47.397Z,9.80
2022-10-26T01:56:19.153Z,10.40
2022-10-26T01:57:41.255Z,10.57
2022-10-26T01:59:20.028Z,10.00
2022-10-26T02:00:49.862Z,10.70
2022-10-26T02:02:22.153Z,10.30
2022-10-26T02:04:07.443Z,9.47
2022-10-26T02:05:59.930Z,9.87
2022-10-26T02:07:30.529Z,9.50
2022-10-26T02:09:11.891Z,10.20
2022-10-26T02:10:55.166Z,10.20
2022-10-26T02:12:58.472Z,9.67
2022-10-26T02:15:04.826Z,9.40
2022-10-26T02:16:38.634Z,8.43
2022-10-26T02:18:33.213Z,10.83
2022-10-26T02:20:02.712Z,9.90
2022-10-26T02:21:32.031Z,10.00
2022-10-26T02:22:56.232Z,9.43
2022-10-26T02:24:19.893Z,9.07
2022-10-26T02:25:48.004Z,10.13
2022-10-26T02:27:16.548Z,10.67
2022-10-26T02:28:43.724Z,10.07
2022-10-26T02:30:07.132Z,10.07
2022-10-26T02:31:31.342Z,9.07
2022-10-26T02:32:55.820Z,10.70
2022-10-26T02:34:24.043Z,10.17
2022-10-26T02:35:50.569Z,10.00
2022-10-26T02:37:15.784Z,10.10
2022-10-26T02:38:40.027Z,10.00
2022-10-26T02:40:06.570Z,11.27
2022-10-26T02:41:30.766Z,9.93
2022-10-26T02:42:56.224Z,10.13
2022-10-26T02:44:29.360Z,9.97
2022-10-26T02:45:59.408Z,9.17
2022-10-26T02:47:22.400Z,9.73
2022-10-26T02:48:44.835Z,9.67
2022-10-26T02:50:07.234Z,9.60
2022-10-26T02:51:39.210Z,10.70
2022-10-26T02:53:27.595Z,10.43
2022-10-26T02:55:01.600Z,10.83
2022-10-26T02:56:40.263Z,10.23
2022-10-26T02:58:06.825Z,9.33
2022-10-26T02:59:34.195Z,10.10
2022-10-26T03:00:57.258Z,10.20
2022-10-26T03:02:20.767Z,10.20
2022-10-26T03:03:43.030Z,9.43
2022-10-26T03:05:19.541Z,11.13
2022-10-26T03:06:41.630Z,12.07
2022-10-26T03:08:04.249Z,11.10
2022-10-26T03:09:26.990Z,10.70
2022-10-26T03:10:48.957Z,9.00
2022-10-26T03:12:11.109Z,9.90
2022-10-26T03:13:33.225Z,10.63
2022-10-26T03:14:55.347Z,10.57
2022-10-26T03:16:17.515Z,10.63
2022-10-26T03:17:39.691Z,9.67
2022-10-26T03:19:01.888Z,13.40
2022-10-26T03:20:24.077Z,11.47
2022-10-26T03:21:46.139Z,10.50
2022-10-26T03:23:08.342Z,9.77
2022-10-26T03:24:30.456Z,10.20
2022-10-26T03:25:56.531Z,10.10
2022-10-26T03:27:18.656Z,10.17
2022-10-26T03:28:40.931Z,10.37
2022-10-26T03:30:03.183Z,10.00
2022-10-26T03:31:25.395Z,10.33
2022-10-26T03:32:47.602Z,9.73
2022-10-26T03:34:09.714Z,10.40
2022-10-26T03:35:32.230Z,11.10
2022-10-26T03:36:54.315Z,10.23
2022-10-26T03:38:16.431Z,10.10
2022-10-26T03:39:38.535Z,10.20
2022-10-26T03:41:00.905Z,10.13
2022-10-26T03:42:22.945Z,10.03
2022-10-26T03:43:44.983Z,10.73
2022-10-26T03:45:08.684Z,11.10
2022-10-26T03:46:30.896Z,10.30
2022-10-26T03:47:53.183Z,10.47
2022-10-26T03:49:15.277Z,11.20
2022-10-26T03:50:37.446Z,10.80
2022-10-26T03:51:59.631Z,10.20
2022-10-26T03:53:21.794Z,10.23
2022-10-26T03:54:43.905Z,10.47
2022-10-26T03:56:06.379Z,9.80
2022-10-26T03:57:28.430Z,10.17
2022-10-26T03:58:50.449Z,9.90
2022-10-26T04:00:17.673Z,11.13
2022-10-26T04:01:40.328Z,10.27
2022-10-26T04:03:02.458Z,9.60
2022-10-26T04:04:24.564Z,11.00
2022-10-26T04:05:46.622Z,11.23
2022-10-26T04:07:08.660Z,10.43
2022-10-26T04:08:30.689Z,10.80
2022-10-26T04:09:52.715Z,11.43
2022-10-26T04:11:14.782Z,10.40
2022-10-26T04:12:38.321Z,12.30
2022-10-26T04:14:00.621Z,10.73
2022-10-26T04:15:23.332Z,10.90
2022-10-26T04:16:45.344Z,10.10
2022-10-26T04:18:07.321Z,10.30
2022-10-26T04:19:29.291Z,9.57
2022-10-26T04:20:51.314Z,10.50
2022-10-26T04:22:13.468Z,10.40
2022-10-26T04:23:35.465Z,9.53
2022-10-26T04:24:57.528Z,10.07
2022-10-26T04:26:19.595Z,10.73
2022-10-26T04:27:41.604Z,10.77
2022-10-26T04:29:06.703Z,12.03
2022-10-26T04:30:28.746Z,10.63
2022-10-26T04:31:51.025Z,10.80
2022-10-26T04:33:13.185Z,11.47
2022-10-26T04:34:35.226Z,11.60
2022-10-26T04:36:03.470Z,10.53
2022-10-26T04:37:25.461Z,11.50
2022-10-26T04:38:49.283Z,11.80
2022-10-26T04:40:11.669Z,11.00
2022-10-26T04:41:33.668Z,11.00
2022-10-26T04:42:55.737Z,11.67
2022-10-26T04:44:17.758Z,10.67
2022-10-26T04:45:39.839Z,10.30
2022-10-26T04:47:01.897Z,10.80
2022-10-26T04:49:46.723Z,10.20
2022-10-26T04:51:08.865Z,10.23
2022-10-26T04:52:31.046Z,11.17
2022-10-26T04:53:55.989Z,10.50
2022-10-26T04:55:18.018Z,9.83
2022-10-26T04:56:40.080Z,11.27
2022-10-26T04:58:02.525Z,10.50
2022-10-26T04:59:24.689Z,10.30
2022-10-26T05:00:46.744Z,9.80
2022-10-26T05:02:08.844Z,11.40
2022-10-26T05:03:30.944Z,10.13
2022-10-26T05:04:53.030Z,10.97
2022-10-26T05:06:15.143Z,11.20
2022-10-26T05:07:37.341Z,10.40
2022-10-26T05:08:59.377Z,10.57
2022-10-26T05:10:21.451Z,11.17
2022-10-26T05:11:43.544Z,11.50
2022-10-26T05:13:05.633Z,10.60
2022-10-26T05:14:27.661Z,10.63
2022-10-26T05:15:53.533Z,10.43
2022-10-26T05:17:15.828Z,12.63
2022-10-26T05:18:37.908Z,10.90
2022-10-26T05:20:05.691Z,11.10
2022-10-26T05:21:27.734Z,10.07
2022-10-26T05:22:56.774Z,10.60
2022-10-26T05:24:19.108Z,10.87
2022-10-26T05:25:41.107Z,9.97
2022-10-26T05:27:03.257Z,10.60
2022-10-26T05:28:25.359Z,11.43
2022-10-26T05:29:47.347Z,11.40
2022-10-26T05:31:09.404Z,11.37
2022-10-26T05:32:31.453Z,13.13
2022-10-26T05:33:53.501Z,11.70
2022-10-26T05:35:15.627Z,11.70
2022-10-26T05:36:37.871Z,11.30
2022-10-26T05:38:00.306Z,11.30
2022-10-26T05:39:22.794Z,11.03
2022-10-26T05:40:52.681Z,10.50
2022-10-26T05:42:14.724Z,13.73
2022-10-26T05:43:36.768Z,13.23
2022-10-26T05:44:58.898Z,11.87
2022-10-26T05:46:20.977Z,12.13
2022-10-26T05:47:44.190Z,11.00
2022-10-26T05:49:06.255Z,10.50
2022-10-26T05:50:28.251Z,11.70
2022-10-26T05:51:50.243Z,11.00
2022-10-26T05:53:12.501Z,11.93
2022-10-26T05:54:34.514Z,11.80
2022-10-26T05:55:57.268Z,11.53
2022-10-26T05:57:19.607Z,11.57
2022-10-26T05:58:41.845Z,12.73
2022-10-26T06:00:24.234Z,12.27
2022-10-26T06:01:46.338Z,10.97
2022-10-26T06:05:04.262Z,11.50
2022-10-26T06:06:27.941Z,11.83
2022-10-26T06:07:50.745Z,10.10
2022-10-26T06:09:14.645Z,11.63
2022-10-26T06:10:37.792Z,11.57
2022-10-26T06:12:01.769Z,10.60
2022-10-26T06:13:24.056Z,10.93
2022-10-26T06:14:46.354Z,10.73
2022-10-26T06:16:20.667Z,9.55
2022-10-26T06:17:42.677Z,10.77
2022-10-26T06:19:33.540Z,10.23
2022-10-26T06:21:18.943Z,11.00
2022-10-26T06:23:01.960Z,10.50
2022-10-26T06:24:41.762Z,10.47
2022-10-26T06:26:18.362Z,10.17
2022-10-26T06:27:52.267Z,10.80
2022-10-26T06:29:36.925Z,10.93
2022-10-26T06:30:58.992Z,10.60
2022-10-26T06:32:23.894Z,10.17
2022-10-26T06:33:46.274Z,10.50
2022-10-26T06:35:08.415Z,11.00
2022-10-26T06:36:31.283Z,10.70
2022-10-26T06:37:55.659Z,9.90
2022-10-26T06:39:19.372Z,10.30
2022-10-26T06:40:43.833Z,11.67
2022-10-26T06:42:07.302Z,10.30
2022-10-26T06:43:32.588Z,11.07
2022-10-26T06:44:54.932Z,10.30
2022-10-26T06:46:49.754Z,10.80
2022-10-26T06:48:19.256Z,10.80
2022-10-26T06:49:56.956Z,10.30
2022-10-26T06:51:20.584Z,10.03
2022-10-26T06:52:51.631Z,10.20
2022-10-26T06:54:36.894Z,10.30
2022-10-26T06:56:00.209Z,9.90
2022-10-26T06:57:24.367Z,9.87
2022-10-26T06:58:47.918Z,10.00
2022-10-26T07:00:25.238Z,9.70
2022-10-26T07:01:47.789Z,9.87
2022-10-26T07:03:10.052Z,9.87
2022-10-26T07:04:33.313Z,10.63
2022-10-26T07:05:55.349Z,10.30
2022-10-26T07:07:20.896Z,10.00
2022-10-26T07:08:42.924Z,10.07
2022-10-26T07:10:07.118Z,10.00
2022-10-26T07:11:29.082Z,9.67
2022-10-26T07:12:51.081Z,10.60
2022-10-26T07:14:13.111Z,10.03
2022-10-26T07:15:39.582Z,10.10
2022-10-26T07:17:01.879Z,9.13
2022-10-26T07:18:23.929Z,10.37
2022-10-26T07:19:46.059Z,8.70
2022-10-26T07:21:08.083Z,9.03
2022-10-26T07:22:30.083Z,8.60
2022-10-26T07:23:52.607Z,8.60
2022-10-26T07:25:14.694Z,9.97
2022-10-26T07:26:36.743Z,8.47
2022-10-26T07:27:59.612Z,8.57
2022-10-26T07:29:23.060Z,9.60
2022-10-26T07:30:45.174Z,8.87
2022-10-26T07:32:07.327Z,8.60
2022-10-26T07:33:29.310Z,8.43
2022-10-26T07:34:51.329Z,9.40
2022-10-26T07:36:13.478Z,8.20
2022-10-26T07:37:35.694Z,9.80
2022-10-26T07:38:57.727Z,9.30
2022-10-26T07:40:19.750Z,8.63
2022-10-26T07:41:41.794Z,8.70
2022-10-26T07:43:03.899Z,8.93
2022-10-26T07:44:25.887Z,8.50
2022-10-26T07:45:51.599Z,8.33
2022-10-26T07:47:13.649Z,7.90
2022-10-26T07:48:35.755Z,8.30
2022-10-26T07:49:57.794Z,8.67
2022-10-26T07:51:20.280Z,8.17
2022-10-26T07:52:42.383Z,8.80
2022-10-26T07:54:04.522Z,8.13
2022-10-26T07:55:27.590Z,9.03
2022-10-26T07:56:50.273Z,9.00
2022-10-26T07:58:12.342Z,9.27
2022-10-26T07:59:34.396Z,8.90
2022-10-26T08:00:56.980Z,7.67
2022-10-26T08:02:19.312Z,8.53
2022-10-26T08:03:41.732Z,11.60
2022-10-26T08:05:04.513Z,8.83
2022-10-26T08:06:26.599Z,7.87
2022-10-26T08:07:49.209Z,7.83
2022-10-26T08:09:11.513Z,8.30
2022-10-26T08:10:33.703Z,7.80
2022-10-26T08:11:55.759Z,7.90
2022-10-26T08:13:17.966Z,7.90
2022-10-26T08:14:39.981Z,6.60
2022-10-26T08:16:05.402Z,7.10
2022-10-26T08:17:29.215Z,7.93
2022-10-26T08:18:51.603Z,6.90
2022-10-26T08:20:13.669Z,7.70
2022-10-26T08:21:39.478Z,6.53
2022-10-26T08:23:06.072Z,7.53
2022-10-26T08:24:28.867Z,8.73
2022-10-26T08:25:50.959Z,7.10
2022-10-26T08:27:14.981Z,7.00
2022-10-26T08:28:37.573Z,7.70
2022-10-26T08:29:59.602Z,8.00
2022-10-26T08:31:21.609Z,7.70
2022-10-26T08:32:44.152Z,8.10
2022-10-26T08:34:06.213Z,6.53
2022-10-26T08:35:28.846Z,6.93
2022-10-26T08:36:50.834Z,7.87
2022-10-26T08:38:12.798Z,8.17
2022-10-26T08:39:34.793Z,7.97
2022-10-26T08:40:59.866Z,8.30
2022-10-26T08:42:42.480Z,6.70
2022-10-26T08:44:27.701Z,6.87
2022-10-26T08:46:15.200Z,7.40
2022-10-26T08:47:44.875Z,7.43
2022-10-26T08:49:34.963Z,7.77
2022-10-26T08:51:01.500Z,7.50
2022-10-26T08:52:37.217Z,8.03
2022-10-26T08:54:10.616Z,9.53
2022-10-26T08:55:45.009Z,7.80
2022-10-26T08:57:41.295Z,8.63
2022-10-26T08:59:31.503Z,7.73
2022-10-26T09:00:53.651Z,7.47
2022-10-26T09:02:17.641Z,7.67
2022-10-26T09:03:39.924Z,7.40
2022-10-26T09:05:02.402Z,7.93
2022-10-26T09:06:59.693Z,8.30
2022-10-26T09:08:28.738Z,8.17
2022-10-26T09:10:09.348Z,7.53
2022-10-26T09:11:50.128Z,6.70
2022-10-26T09:13:20.698Z,6.80
2022-10-26T09:15:04.369Z,6.73
2022-10-26T09:16:30.435Z,7.67
2022-10-26T09:18:10.881Z,8.27
2022-10-26T09:19:54.135Z,7.70
2022-10-26T09:21:47.259Z,8.17
2022-10-26T09:23:33.518Z,8.10
2022-10-26T09:24:56.674Z,7.70
2022-10-26T09:26:41.706Z,7.47
2022-10-26T09:28:04.971Z,7.93
2022-10-26T09:29:33.353Z,8.50
2022-10-26T09:30:59.330Z,8.60
2022-10-26T09:32:26.634Z,8.00
2022-10-26T09:33:48.903Z,8.33
2022-10-26T09:35:27.841Z,8.43
2022-10-26T09:36:55.260Z,7.50
2022-10-26T09:38:28.448Z,8.40
2022-10-26T09:40:05.852Z,7.53
2022-10-26T09:41:33.655Z,7.77
2022-10-26T09:43:02.352Z,7.47
2022-10-26T09:45:11.774Z,6.77
2022-10-26T09:46:55.193Z,8.53
2022-10-26T09:48:43.080Z,8.00
2022-10-26T09:50:29.162Z,7.70
2022-10-26T09:51:51.212Z,6.83
2022-10-26T09:53:13.337Z,8.77
2022-10-26T09:54:35.396Z,7.00
2022-10-26T09:56:11.172Z,7.63
2022-10-26T09:57:33.353Z,7.17
2022-10-26T09:59:03.286Z,6.83
2022-10-26T10:00:26.423Z,8.53
2022-10-26T10:01:48.549Z,7.37
2022-10-26T10:03:28.162Z,6.43
2022-10-26T10:04:50.200Z,7.80
2022-10-26T10:06:19.969Z,8.07
2022-10-26T10:07:41.972Z,6.70
2022-10-26T10:09:11.160Z,6.73
2022-10-26T10:10:33.415Z,7.67
2022-10-26T10:12:05.294Z,7.10
2022-10-26T10:13:33.259Z,8.00
2022-10-26T10:14:58.356Z,6.70
2022-10-26T10:16:24.820Z,6.20
2022-10-26T10:17:58.306Z,6.70
2022-10-26T10:19:34.781Z,6.30
2022-10-26T10:20:59.409Z,6.73
2022-10-26T10:22:25.859Z,6.73
2022-10-26T10:23:51.959Z,6.10
2022-10-26T10:25:26.088Z,7.17
2022-10-26T10:27:24.974Z,6.43
2022-10-26T10:28:58.887Z,6.30
2022-10-26T10:30:27.335Z,6.53
2022-10-26T10:31:56.780Z,6.63
2022-10-26T10:33:18.764Z,5.93
2022-10-26T10:34:40.917Z,7.40
2022-10-26T10:36:06.259Z,6.03
2022-10-26T10:37:44.297Z,7.13
2022-10-26T10:39:45.053Z,6.87
2022-10-26T10:41:29.374Z,6.60
2022-10-26T10:42:54.804Z,6.57
2022-10-26T10:44:30.057Z,6.70
2022-10-26T10:45:55.894Z,5.70
2022-10-26T10:47:28.513Z,7.00
2022-10-26T10:49:02.148Z,6.30
2022-10-26T10:50:24.563Z,7.10
2022-10-26T10:51:48.212Z,6.73
2022-10-26T10:53:38.281Z,7.30
2022-10-26T10:55:15.261Z,6.83
2022-10-26T10:56:52.800Z,6.30
2022-10-26T10:58:26.908Z,7.50
2022-10-26T11:00:09.652Z,7.10
2022-10-26T11:01:44.431Z,7.70
2022-10-26T11:03:25.959Z,7.97
2022-10-26T11:04:48.182Z,8.40
2022-10-26T11:06:10.182Z,7.73
2022-10-26T11:07:39.251Z,7.77
2022-10-26T11:09:12.251Z,7.80
2022-10-26T11:10:39.119Z,7.23
2022-10-26T11:12:27.525Z,7.13
2022-10-26T11:13:49.757Z,7.60
2022-10-26T11:15:19.662Z,6.57
2022-10-26T11:16:50.301Z,6.60
2022-10-26T11:18:18.342Z,6.77
2022-10-26T11:19:57.612Z,7.00
2022-10-26T11:21:26.164Z,6.33
2022-10-26T11:23:18.098Z,6.43
2022-10-26T11:24:54.932Z,6.97
2022-10-26T11:26:43.630Z,6.30
2022-10-26T11:28:20.792Z,6.27
2022-10-26T11:30:01.602Z,6.10
2022-10-26T11:31:31.127Z,6.97
2022-10-26T11:33:27.024Z,6.30
2022-10-26T11:35:17.014Z,5.60
2022-10-26T11:36:41.941Z,6.10
2022-10-26T11:38:32.922Z,5.43
2022-10-26T11:40:47.807Z,5.73
2022-10-26T11:42:20.932Z,4.50
2022-10-26T11:43:48.688Z,4.50
2022-10-26T11:45:19.369Z,5.30
2022-10-26T11:46:45.939Z,4.80
2022-10-26T11:48:20.519Z,5.50
2022-10-26T11:49:49.544Z,5.17
2022-10-26T11:51:21.614Z,5.50
2022-10-26T11:52:48.114Z,6.30
2022-10-26T11:55:54.424Z,5.27
2022-10-26T11:57:16.980Z,5.67
2022-10-26T11:58:40.029Z,5.00
2022-10-26T12:00:13.046Z,5.80
2022-10-26T12:01:35.219Z,4.93
2022-10-26T12:03:01.332Z,5.10
2022-10-26T12:04:29.515Z,5.73
2022-10-26T12:05:52.773Z,5.60
2022-10-26T12:07:23.323Z,4.63
2022-10-26T12:08:59.440Z,5.20
2022-10-26T12:10:32.222Z,4.73
2022-10-26T12:12:32.596Z,5.20
2022-10-26T12:14:02.420Z,5.30
2022-10-26T12:16:01.807Z,5.20
2022-10-26T12:17:30.747Z,5.57
2022-10-26T12:19:06.669Z,4.97
2022-10-26T12:20:56.723Z,5.20
2022-10-26T12:22:20.924Z,5.00
2022-10-26T12:24:02.372Z,5.27
2022-10-26T12:25:24.502Z,5.37
2022-10-26T12:26:58.200Z,5.43
2022-10-26T12:28:35.542Z,5.53
2022-10-26T12:30:17.313Z,6.20
2022-10-26T12:31:39.280Z,6.43
2022-10-26T12:33:06.135Z,5.70
2022-10-26T12:34:31.273Z,5.40
2022-10-26T12:35:53.309Z,5.47
2022-10-26T12:37:44.795Z,6.13
2022-10-26T12:39:29.008Z,5.93
2022-10-26T12:41:10.776Z,6.20
2022-10-26T12:42:41.455Z,6.40
2022-10-26T12:44:41.682Z,6.50
2022-10-26T12:46:12.327Z,5.67
2022-10-26T12:47:34.302Z,5.17
2022-10-26T12:48:59.860Z,5.40
2022-10-26T12:50:25.333Z,5.40
2022-10-26T12:51:48.562Z,5.90
2022-10-26T12:53:17.240Z,5.73
2022-10-26T12:54:55.196Z,4.83
2022-10-26T12:56:24.352Z,5.03
2022-10-26T12:57:46.351Z,5.37
2022-10-26T12:59:20.122Z,5.33
2022-10-26T13:01:07.374Z,4.83
2022-10-26T13:02:57.409Z,4.63
2022-10-26T13:04:44.347Z,4.73
2022-10-26T13:06:34.140Z,4.97
2022-10-26T13:08:08.166Z,5.40
2022-10-26T13:09:33.171Z,4.60
2022-10-26T13:11:05.567Z,4.47
2022-10-26T13:12:35.895Z,5.00
2022-10-26T13:14:01.728Z,5.20
2022-10-26T13:15:32.483Z,4.80
2022-10-26T13:16:55.047Z,5.07
2022-10-26T13:18:19.570Z,4.53
2022-10-26T13:19:46.890Z,5.40
2022-10-26T13:21:12.820Z,4.70
2022-10-26T13:22:47.347Z,4.23
2022-10-26T13:24:14.829Z,4.77
2022-10-26T13:25:42.898Z,3.90
2022-10-26T13:27:04.890Z,4.53
2022-10-26T13:28:42.088Z,4.00
2022-10-26T13:30:04.071Z,3.70
2022-10-26T13:31:28.872Z,4.00
2022-10-26T13:32:55.517Z,4.10
2022-10-26T13:34:20.298Z,3.80
2022-10-26T13:35:43.652Z,3.50
2022-10-26T13:37:23.391Z,3.37
2022-10-26T13:38:47.340Z,3.57
2022-10-26T13:40:18.289Z,3.70
2022-10-26T13:41:44.529Z,4.13
2022-10-26T13:43:13.496Z,4.60
2022-10-26T13:44:43.654Z,3.87
2022-10-26T13:46:05.886Z,4.50
2022-10-26T13:48:07.779Z,4.10
2022-10-26T13:49:41.426Z,3.97
2022-10-26T13:51:19.024Z,4.10
2022-10-26T13:52:52.165Z,4.20
2022-10-26T13:54:33.201Z,4.70
2022-10-26T13:56:13.446Z,4.50
2022-10-26T13:57:38.458Z,4.13
2022-10-26T13:59:10.350Z,4.20
2022-10-26T14:00:32.531Z,4.73
2022-10-26T14:02:13.991Z,4.87
2022-10-26T14:03:36.955Z,4.00
2022-10-26T14:05:05.594Z,4.13
2022-10-26T14:06:38.434Z,4.87
2022-10-26T14:08:00.539Z,4.67
2022-10-26T14:09:23.138Z,4.47
2022-10-26T14:11:05.621Z,4.63
2022-10-26T14:12:31.192Z,4.47
2022-10-26T14:13:53.500Z,5.27
2022-10-26T14:15:16.355Z,4.10
2022-10-26T14:16:46.461Z,5.00
2022-10-26T14:18:19.170Z,3.93
2022-10-26T14:19:41.739Z,4.73
2022-10-26T14:21:07.026Z,5.30
2022-10-26T14:22:30.435Z,4.33
2022-10-26T14:24:00.431Z,4.80
2022-10-26T14:25:42.244Z,4.60
2022-10-26T14:27:18.471Z,4.10
2022-10-26T14:28:50.560Z,4.77
2022-10-26T14:30:23.893Z,4.70
2022-10-26T14:31:46.509Z,5.03
2022-10-26T14:33:26.014Z,4.43
2022-10-26T14:34:48.275Z,4.73
2022-10-26T14:36:11.333Z,5.10
2022-10-26T14:37:59.351Z,4.07
2022-10-26T14:39:21.364Z,3.70
2022-10-26T14:40:44.244Z,4.17
2022-10-26T14:42:24.887Z,4.10
2022-10-26T14:43:47.178Z,4.10
2022-10-26T14:45:47.741Z,4.60
2022-10-26T14:47:24.393Z,4.60
2022-10-26T14:48:58.215Z,5.00
2022-10-26T14:50:23.253Z,4.53
2022-10-26T14:51:45.373Z,4.60
2022-10-26T14:53:19.837Z,5.13
2022-10-26T14:54:41.910Z,4.43
2022-10-26T14:56:05.709Z,5.00
2022-10-26T14:57:40.022Z,4.33
2022-10-26T14:59:12.917Z,5.20
2022-10-26T15:00:35.272Z,4.60
2022-10-26T15:01:59.188Z,4.93
2022-10-26T15:03:22.146Z,5.13
2022-10-26T15:05:15.851Z,4.93
2022-10-26T15:06:43.112Z,5.10
2022-10-26T15:08:33.773Z,5.20
2022-10-26T15:10:36.437Z,5.47
2022-10-26T15:11:58.876Z,5.87
2022-10-26T15:13:23.677Z,5.00
2022-10-26T15:14:45.927Z,4.70
2022-10-26T15:16:10.852Z,5.00
2022-10-26T15:17:38.623Z,4.47
2022-10-26T15:19:11.823Z,5.50
2022-10-26T15:20:34.775Z,6.23
2022-10-26T15:21:57.327Z,8.20
2022-10-26T15:23:21.830Z,8.20
2022-10-26T15:24:43.885Z,8.80
2022-10-26T15:26:10.668Z,8.67
2022-10-26T15:27:32.849Z,8.43
2022-10-26T15:28:55.554Z,8.20
2022-10-26T15:30:28.030Z,7.10
2022-10-26T15:33:27.824Z,7.87
2022-10-26T15:35:11.435Z,7.90
2022-10-26T15:36:35.717Z,7.50
2022-10-26T15:37:59.025Z,8.33
2022-10-26T15:39:22.401Z,9.80
2022-10-26T15:40:44.830Z,9.03
2022-10-26T15:42:13.503Z,9.17
2022-10-26T15:43:35.560Z,8.00
2022-10-26T15:44:59.130Z,8.60
2022-10-26T15:46:22.248Z,7.73
2022-10-26T15:47:44.595Z,7.27
2022-10-26T15:49:14.424Z,8.00
2022-10-26T15:50:37.844Z,6.53
2022-10-26T15:52:02.675Z,7.43
2022-10-26T15:53:29.646Z,7.50
2022-10-26T15:54:51.673Z,8.47
2022-10-26T15:56:19.673Z,7.80
2022-10-26T15:57:41.916Z,8.00
2022-10-26T15:59:03.959Z,7.03
2022-10-26T16:00:26.088Z,8.20
2022-10-26T16:01:48.259Z,8.17
2022-10-26T16:03:14.652Z,7.63
2022-10-26T16:04:36.638Z,7.97
2022-10-26T16:06:01.002Z,8.10
2022-10-26T16:07:26.121Z,8.20
2022-10-26T16:08:51.486Z,7.30
2022-10-26T16:10:21.796Z,6.70
2022-10-26T16:11:44.973Z,6.23
2022-10-26T16:13:13.753Z,7.10
2022-10-26T16:14:53.356Z,6.10
2022-10-26T16:16:19.792Z,6.67
2022-10-26T16:17:41.776Z,6.40
2022-10-26T16:19:29.242Z,5.97
2022-10-26T16:20:46.116Z,5.20
2022-10-26T16:22:09.486Z,4.90
2022-10-26T16:23:31.648Z,5.83
2022-10-26T16:24:53.657Z,5.83
2022-10-26T16:26:16.130Z,5.23
2022-10-26T16:27:38.200Z,6.80
2022-10-26T16:29:00.178Z,6.53
2022-10-26T16:30:25.799Z,6.10
2022-10-26T16:31:49.299Z,7.50
2022-10-26T16:33:11.403Z,7.03
2022-10-26T16:34:33.414Z,6.00
2022-10-26T16:35:59.696Z,5.90
2022-10-26T16:37:21.790Z,6.30
2022-10-26T16:38:43.866Z,6.83
2022-10-26T16:40:06.986Z,6.30
2022-10-26T16:41:28.983Z,6.40
2022-10-26T16:42:51.276Z,6.37
2022-10-26T16:44:13.622Z,5.90
2022-10-26T16:45:35.681Z,6.20
2022-10-26T16:46:57.733Z,7.20
2022-10-26T16:48:19.728Z,6.50
2022-10-26T16:49:43.375Z,7.83
2022-10-26T16:51:10.324Z,6.13
2022-10-26T16:52:34.704Z,7.00
2022-10-26T16:53:57.857Z,6.20
2022-10-26T16:55:24.365Z,6.33
2022-10-26T16:56:46.368Z,6.40
2022-10-26T16:58:08.415Z,7.07
2022-10-26T16:59:30.688Z,7.03
2022-10-26T17:00:56.172Z,6.43
2022-10-26T17:02:18.384Z,6.03
2022-10-26T17:03:40.517Z,6.30
2022-10-26T17:05:06.025Z,7.40
2022-10-26T17:06:29.700Z,7.43
2022-10-26T17:07:51.873Z,7.80
2022-10-26T17:09:14.383Z,7.73
2022-10-26T17:10:36.406Z,8.67
2022-10-26T17:12:01.923Z,7.13
2022-10-26T17:13:24.300Z,7.30
2022-10-26T17:14:46.417Z,7.00
2022-10-26T17:16:14.921Z,8.00
2022-10-26T17:17:36.907Z,7.57
2022-10-26T17:18:58.912Z,7.13
2022-10-26T17:20:20.946Z,7.43
2022-10-26T17:21:44.393Z,7.70
2022-10-26T17:23:06.574Z,6.90
2022-10-26T17:24:28.638Z,7.10
2022-10-26T17:25:50.776Z,6.97
2022-10-26T17:27:12.808Z,6.80
2022-10-26T17:28:35.183Z,6.97
2022-10-26T17:29:57.193Z,6.27
2022-10-26T17:31:19.331Z,6.77
2022-10-26T17:32:41.391Z,5.93
2022-10-26T17:34:03.407Z,6.90
2022-10-26T17:35:25.448Z,6.50
2022-10-26T17:36:47.644Z,6.40
2022-10-26T17:38:09.623Z,7.47
2022-10-26T17:39:31.815Z,5.93
2022-10-26T17:40:53.890Z,6.00
2022-10-26T17:42:16.263Z,5.30
2022-10-26T17:43:40.576Z,6.57
2022-10-26T17:45:02.955Z,6.70
2022-10-26T17:46:26.462Z,6.17
2022-10-26T17:47:48.826Z,5.70
2022-10-26T17:49:11.251Z,6.20
2022-10-26T17:50:33.254Z,5.83
2022-10-26T17:51:55.298Z,6.53
2022-10-26T17:53:17.552Z,6.70
2022-10-26T17:54:39.686Z,6.00
2022-10-26T17:56:07.613Z,6.07
2022-10-26T17:57:30.078Z,5.07
2022-10-26T17:58:54.039Z,6.50
2022-10-26T18:00:18.227Z,6.60
2022-10-26T18:01:40.351Z,6.03
2022-10-26T18:03:02.506Z,6.30
2022-10-26T18:04:24.705Z,5.80
2022-10-26T18:05:52.645Z,6.30
2022-10-26T18:07:14.752Z,5.93
2022-10-26T18:08:38.003Z,6.57
2022-10-26T18:10:08.992Z,6.10
2022-10-26T18:11:42.094Z,6.03
2022-10-26T18:13:04.171Z,6.30
2022-10-26T18:14:26.254Z,6.40
2022-10-26T18:15:48.393Z,6.37
2022-10-26T18:17:10.375Z,6.27
2022-10-26T18:18:32.967Z,9.93
2022-10-26T18:19:55.105Z,6.73
2022-10-26T18:21:20.027Z,6.47
2022-10-26T18:22:42.106Z,5.77
2022-10-26T18:24:05.644Z,6.07
2022-10-26T18:25:28.573Z,6.20
2022-10-26T18:26:50.631Z,5.80
2022-10-26T18:28:12.890Z,6.60
2022-10-26T18:29:37.468Z,5.83
2022-10-26T18:31:09.617Z,5.63
2022-10-26T18:32:31.688Z,7.07
2022-10-26T18:33:58.681Z,6.00
2022-10-26T18:35:20.716Z,5.80
2022-10-26T18:36:42.963Z,5.97
2022-10-26T18:38:05.026Z,5.63
2022-10-26T18:39:27.095Z,6.23
2022-10-26T18:40:53.393Z,6.23
2022-10-26T18:42:15.505Z,5.60
2022-10-26T18:43:42.714Z,6.30
2022-10-26T18:45:05.152Z,6.50
2022-10-26T18:46:29.843Z,6.50
2022-10-26T18:47:52.845Z,6.57
2022-10-26T18:49:16.633Z,6.30
2022-10-26T18:50:38.706Z,5.90
2022-10-26T18:52:00.730Z,6.10
2022-10-26T18:53:22.794Z,6.60
2022-10-26T18:54:44.792Z,7.60
2022-10-26T18:56:09.307Z,7.47
2022-10-26T18:57:31.392Z,6.60
2022-10-26T18:58:58.423Z,6.87
2022-10-26T19:00:20.544Z,7.23
2022-10-26T19:01:42.939Z,7.17
2022-10-26T19:03:07.064Z,8.00
2022-10-26T19:04:29.231Z,7.33
2022-10-26T19:05:51.299Z,7.50
2022-10-26T19:07:13.383Z,6.97
2022-10-26T19:08:35.675Z,6.57
2022-10-26T19:09:58.175Z,6.37
2022-10-26T19:11:22.762Z,6.90
2022-10-26T19:12:45.212Z,6.37
2022-10-26T19:14:08.136Z,6.63
2022-10-26T19:15:30.333Z,6.80
2022-10-26T19:16:53.088Z,6.90
2022-10-26T19:18:15.215Z,7.20
2022-10-26T19:19:37.442Z,6.93
2022-10-26T19:21:12.778Z,6.97
2022-10-26T19:22:34.901Z,7.80
2022-10-26T19:23:59.564Z,7.33